Reedley, California
Current Conditions -  °F | °C
As of 11:55 PM on Friday 19 Dec 2014 (Local Time) from KVIS Reporting Station
Overcast Overcast  
Wind Chill: 50°   Ceiling: 11000
Heat Index: 50°   Visibility: 10mi
Dew Point: 43°   Wind: 8mph
Humidity: 76%   Direction: 100°E
Pressure: 30.21"   Gusts: NA
Location:  36.59°N, 119.45°W
Report Text: KVIS 200755Z AUTO 10007KT 10SM OVC110 10/06 A3021 RMK AO1
Loading
Personal Weather Stations






























Interactive Weather Map New forecast layout! Learn more

10-Day Weather Forecast

Advertisements
Track Severe Weather on mobile